Time;durP1;ratioP1;P1;durP2;ratioP2;P2;SDS_P1;SDS_P2;PMS_P1;PMS_P2;Temp;Humidity;BMP_temperature;BMP_pressure;BME280_temperature;BME280_humidity;BME280_pressure;Samples;Min_cycle;Max_cycle;Signal;HPM_P1;HPM_P2
2023/06/05 00:02:17;;;;;;;11.23;10.63;;;15.40;95.50;;;;;;4990574;28;20485;-71
2023/06/05 00:04:44;;;;;;;10.73;10.10;;;15.40;95.00;;;;;;4990721;28;20984;-71
2023/06/05 00:07:10;;;;;;;10.80;10.30;;;15.40;94.90;;;;;;4990301;28;20541;-71
2023/06/05 00:09:37;;;;;;;9.80;9.40;;;15.50;94.80;;;;;;4990524;28;20543;-71
2023/06/05 00:12:04;;;;;;;10.30;9.80;;;15.50;94.60;;;;;;4990352;28;20459;-71
2023/06/05 00:14:31;;;;;;;11.13;10.63;;;15.40;95.00;;;;;;4990650;28;20941;-71
2023/06/05 00:17:00;;;;;;;12.07;11.37;;;15.30;95.10;;;;;;4990542;28;20479;-71
2023/06/05 00:19:27;;;;;;;15.13;13.80;;;15.10;96.00;;;;;;4990425;28;20474;-72
2023/06/05 00:21:54;;;;;;;11.20;10.60;;;15.00;96.50;;;;;;4990191;28;20792;-71
2023/06/05 00:24:21;;;;;;;9.63;9.23;;;15.00;96.80;;;;;;4990167;28;20482;-72
2023/06/05 00:26:48;;;;;;;10.47;9.97;;;14.90;97.00;;;;;;4990350;28;20455;-71
2023/06/05 00:29:14;;;;;;;10.37;9.93;;;14.90;97.10;;;;;;4990505;28;20455;-71
2023/06/05 00:31:41;;;;;;;11.53;10.87;;;14.90;97.70;;;;;;4990474;28;20454;-71
2023/06/05 00:34:09;;;;;;;10.80;10.30;;;14.80;97.70;;;;;;4975778;28;20651;-72
2023/06/05 00:36:36;;;;;;;11.30;10.70;;;14.80;98.00;;;;;;4970522;28;20812;-71
2023/06/05 00:39:03;;;;;;;10.87;10.10;;;14.80;97.60;;;;;;4970714;28;20483;-72
2023/06/05 00:41:30;;;;;;;10.73;10.17;;;14.90;97.40;;;;;;4970810;28;20494;-71
2023/06/05 00:43:56;;;;;;;10.73;10.17;;;14.80;97.30;;;;;;4970893;28;20458;-72
2023/06/05 00:46:23;;;;;;;11.17;10.37;;;14.80;97.50;;;;;;4970882;28;20450;-71
2023/06/05 00:48:50;;;;;;;10.73;10.23;;;14.70;97.70;;;;;;4970553;28;20456;-71
2023/06/05 00:51:20;;;;;;;10.90;10.40;;;14.70;98.00;;;;;;4970622;28;20462;-71
2023/06/05 00:53:48;;;;;;;10.63;10.20;;;14.60;98.40;;;;;;4970716;28;20513;-72
2023/06/05 00:56:16;;;;;;;10.70;10.20;;;14.70;98.70;;;;;;4972204;28;20491;-71
2023/06/05 00:58:43;;;;;;;10.77;10.10;;;14.70;98.30;;;;;;4974714;28;20448;-71
2023/06/05 01:01:12;;;;;;;11.60;11.00;;;14.60;98.10;;;;;;4974361;28;20452;-71
2023/06/05 01:03:39;;;;;;;11.43;10.80;;;14.50;98.30;;;;;;4974372;28;20464;-71
2023/06/05 01:06:06;;;;;;;12.43;11.53;;;14.40;99.20;;;;;;4974322;28;20463;-72
2023/06/05 01:08:38;;;;;;;11.90;10.87;;;14.40;99.90;;;;;;4974329;28;20482;-71
2023/06/05 01:11:10;;;;;;;11.80;11.03;;;14.30;99.90;;;;;;4974316;28;20461;-71
2023/06/05 01:13:43;;;;;;;12.03;11.33;;;14.40;99.90;;;;;;4974193;28;20482;-72
2023/06/05 01:16:10;;;;;;;11.33;10.73;;;14.30;99.90;;;;;;4974234;28;20452;-72
2023/06/05 01:18:40;;;;;;;11.60;10.90;;;14.30;99.90;;;;;;4973928;28;20463;-72
2023/06/05 01:21:13;;;;;;;11.47;10.90;;;14.20;99.90;;;;;;4973987;28;21013;-71
2023/06/05 01:23:44;;;;;;;12.27;11.30;;;14.20;99.90;;;;;;4974011;28;20501;-71
2023/06/05 01:26:14;;;;;;;11.67;11.10;;;14.20;99.90;;;;;;4974057;28;21017;-72
2023/06/05 01:28:42;;;;;;;10.93;10.37;;;14.10;99.90;;;;;;4973804;28;20502;-72
2023/06/05 01:31:13;;;;;;;11.83;11.23;;;14.00;99.90;;;;;;4973885;28;20510;-72
2023/06/05 01:33:49;;;;;;;12.40;11.70;;;14.00;99.90;;;;;;4973871;28;20917;-73
2023/06/05 01:36:17;;;;;;;12.33;11.53;;;14.00;99.90;;;;;;4973888;28;21036;-73
2023/06/05 01:38:47;;;;;;;11.60;10.90;;;14.10;99.90;;;;;;4974050;28;20793;-72
2023/06/05 01:41:16;;;;;;;12.67;11.67;;;14.20;99.90;;;;;;4973861;28;20479;-72
2023/06/05 01:43:45;;;;;;;12.20;11.40;;;14.10;99.90;;;;;;4973758;28;20459;-72
2023/06/05 01:46:12;;;;;;;11.97;11.23;;;14.10;99.90;;;;;;4973604;28;20524;-72
2023/06/05 01:48:40;;;;;;;12.10;11.30;;;14.00;99.90;;;;;;4973519;28;20451;-72
2023/06/05 01:51:07;;;;;;;12.27;11.47;;;14.00;99.90;;;;;;4973346;28;20695;-72
2023/06/05 01:53:34;;;;;;;13.13;12.43;;;13.90;99.90;;;;;;4973658;28;20459;-72
2023/06/05 01:56:03;;;;;;;11.53;10.93;;;13.90;99.90;;;;;;4973595;28;20451;-72
2023/06/05 01:58:29;;;;;;;12.13;11.23;;;13.80;99.90;;;;;;4973527;28;20500;-72
2023/06/05 02:00:57;;;;;;;11.30;10.80;;;13.70;99.90;;;;;;4973490;28;20456;-72
2023/06/05 02:03:24;;;;;;;11.87;11.27;;;13.60;99.90;;;;;;4973354;28;20551;-72
2023/06/05 02:05:51;;;;;;;12.57;11.57;;;13.60;99.90;;;;;;4973158;28;20793;-72
2023/06/05 02:08:19;;;;;;;12.03;11.23;;;13.60;99.90;;;;;;4972830;28;20542;-71
2023/06/05 02:10:46;;;;;;;12.53;11.63;;;13.50;99.90;;;;;;4973379;28;20464;-72
2023/06/05 02:13:15;;;;;;;12.63;11.40;;;13.50;99.90;;;;;;4973347;28;20455;-72
2023/06/05 02:15:44;;;;;;;12.43;11.20;;;13.40;99.90;;;;;;4973247;28;20480;-72
2023/06/05 02:18:12;;;;;;;12.20;11.30;;;13.30;99.90;;;;;;4973168;28;20527;-71
2023/06/05 02:20:41;;;;;;;11.50;10.90;;;13.30;99.90;;;;;;4972803;28;20495;-72
2023/06/05 02:23:09;;;;;;;11.87;11.17;;;13.10;99.90;;;;;;4973018;28;20447;-71
2023/06/05 02:25:36;;;;;;;13.27;12.40;;;13.10;99.90;;;;;;4972863;28;20525;-72
2023/06/05 02:28:03;;;;;;;11.63;11.03;;;13.00;99.90;;;;;;4972934;28;20448;-72
2023/06/05 02:30:32;;;;;;;12.00;11.40;;;13.10;99.90;;;;;;4973158;28;20458;-72
2023/06/05 02:33:00;;;;;;;12.57;11.73;;;13.10;99.90;;;;;;4973043;28;20458;-72
2023/06/05 02:35:29;;;;;;;12.67;12.03;;;13.00;99.90;;;;;;4972685;28;20985;-72
2023/06/05 02:37:56;;;;;;;13.00;12.30;;;13.00;99.90;;;;;;4972619;28;20496;-71
2023/06/05 02:40:23;;;;;;;13.57;12.53;;;12.80;99.90;;;;;;4972319;28;20574;-73
2023/06/05 02:42:50;;;;;;;13.73;12.63;;;12.70;99.90;;;;;;4972564;28;20869;-71
2023/06/05 02:45:16;;;;;;;12.37;11.57;;;12.70;99.90;;;;;;4972692;28;20460;-72
2023/06/05 02:47:44;;;;;;;12.60;11.70;;;12.60;99.90;;;;;;4972752;28;20452;-72
2023/06/05 02:50:11;;;;;;;13.23;12.23;;;12.60;99.90;;;;;;4972426;28;20452;-72
2023/06/05 02:52:39;;;;;;;11.43;10.83;;;12.60;99.90;;;;;;4972629;28;20451;-72
2023/06/05 02:55:07;;;;;;;12.37;11.77;;;12.60;99.90;;;;;;4972295;28;20704;-73
2023/06/05 02:57:40;;;;;;;12.40;11.60;;;12.50;99.90;;;;;;4972310;28;20483;-72
2023/06/05 03:00:08;;;;;;;12.80;12.00;;;12.50;99.90;;;;;;4972382;28;21009;-72
2023/06/05 03:02:36;;;;;;;13.13;12.43;;;12.50;99.90;;;;;;4972228;28;20459;-71
2023/06/05 03:05:06;;;;;;;13.57;12.73;;;12.50;99.90;;;;;;4972119;28;20462;-76
2023/06/05 03:07:33;;;;;;;12.20;11.60;;;12.60;99.90;;;;;;4977242;28;20631;-73
2023/06/05 03:10:00;;;;;;;13.70;13.00;;;12.50;99.90;;;;;;4990247;28;20529;-73
2023/06/05 03:12:27;;;;;;;13.70;12.70;;;12.50;99.90;;;;;;4991611;28;20457;-73
2023/06/05 03:14:53;;;;;;;13.53;12.63;;;12.50;99.90;;;;;;4991373;28;20457;-73
2023/06/05 03:17:20;;;;;;;15.30;14.20;;;12.50;99.90;;;;;;4991264;28;20490;-74
2023/06/05 03:19:47;;;;;;;13.73;13.03;;;12.40;99.90;;;;;;4990713;28;20458;-73
2023/06/05 03:22:15;;;;;;;14.03;13.13;;;12.40;99.90;;;;;;4985531;28;20452;-72
2023/06/05 03:24:41;;;;;;;19.73;14.13;;;12.30;99.90;;;;;;4980171;28;20647;-73
2023/06/05 03:27:08;;;;;;;14.80;13.73;;;12.40;99.90;;;;;;4976878;28;20447;-72
2023/06/05 03:29:35;;;;;;;13.83;13.03;;;12.40;99.90;;;;;;4971813;28;20454;-73
2023/06/05 03:32:01;;;;;;;14.50;13.53;;;12.40;99.90;;;;;;4971964;28;20460;-73
2023/06/05 03:34:29;;;;;;;14.03;13.13;;;12.30;99.90;;;;;;4971852;28;20466;-73
2023/06/05 03:36:58;;;;;;;13.07;12.27;;;12.30;99.90;;;;;;4971452;28;20456;-72
2023/06/05 03:39:26;;;;;;;15.17;14.03;;;12.40;99.90;;;;;;4971246;28;20482;-73
2023/06/05 03:41:53;;;;;;;14.03;13.20;;;12.40;99.90;;;;;;4971385;28;20483;-73
2023/06/05 03:44:20;;;;;;;14.00;13.10;;;12.30;99.90;;;;;;4971302;28;20565;-71
2023/06/05 03:46:46;;;;;;;15.00;13.90;;;12.40;99.90;;;;;;4971572;28;20459;-72
2023/06/05 03:49:13;;;;;;;15.30;14.00;;;12.50;99.90;;;;;;4971439;28;20479;-72
2023/06/05 03:51:41;;;;;;;14.53;13.43;;;12.50;99.90;;;;;;4971076;28;20810;-73
2023/06/05 03:54:09;;;;;;;14.43;13.33;;;12.50;99.90;;;;;;4971098;28;20456;-72
2023/06/05 03:56:42;;;;;;;16.03;14.60;;;12.60;99.90;;;;;;4971122;28;20713;-72
2023/06/05 03:59:18;;;;;;;16.40;15.10;;;12.70;99.90;;;;;;4970941;28;20500;-72
2023/06/05 04:01:45;;;;;;;14.60;13.80;;;12.70;99.90;;;;;;4971359;28;20488;-71
2023/06/05 04:04:12;;;;;;;14.90;13.90;;;12.80;99.90;;;;;;4971044;28;20463;-73
2023/06/05 04:06:40;;;;;;;14.97;13.80;;;12.80;99.90;;;;;;4970860;28;20555;-71
2023/06/05 04:09:11;;;;;;;14.80;13.43;;;12.80;99.90;;;;;;4970865;28;20483;-72
2023/06/05 04:11:40;;;;;;;16.00;14.93;;;12.90;99.90;;;;;;4970895;28;20451;-72
2023/06/05 04:14:07;;;;;;;15.30;14.00;;;12.90;99.90;;;;;;4970718;28;20451;-72
2023/06/05 04:16:34;;;;;;;16.07;14.70;;;12.90;99.90;;;;;;4970712;28;20486;-72
2023/06/05 04:19:01;;;;;;;16.40;15.00;;;13.00;99.90;;;;;;4970806;28;20491;-71
2023/06/05 04:21:28;;;;;;;16.47;14.93;;;13.10;99.90;;;;;;4970852;28;20456;-73
2023/06/05 04:23:55;;;;;;;15.50;14.07;;;13.30;99.90;;;;;;4970779;28;20452;-71
2023/06/05 04:26:21;;;;;;;16.40;14.90;;;13.60;99.90;;;;;;4970675;28;20496;-73
2023/06/05 04:28:51;;;;;;;14.83;13.90;;;14.20;99.90;;;;;;4970757;28;20459;-73
2023/06/05 04:31:17;;;;;;;15.43;14.37;;;14.80;99.90;;;;;;4970521;28;20456;-73
2023/06/05 04:33:44;;;;;;;13.73;12.80;;;15.40;99.90;;;;;;4970932;28;20934;-73
2023/06/05 04:36:11;;;;;;;14.40;13.33;;;15.80;99.90;;;;;;4970613;28;20473;-73
2023/06/05 04:38:39;;;;;;;17.60;13.07;;;16.00;99.90;;;;;;4970476;28;20582;-73
2023/06/05 04:41:06;;;;;;;23.70;14.20;;;16.40;99.90;;;;;;4970343;28;20558;-72
2023/06/05 04:43:33;;;;;;;16.87;13.40;;;16.60;99.90;;;;;;4970471;28;20456;-72
2023/06/05 04:46:01;;;;;;;14.63;13.43;;;17.00;99.90;;;;;;4970770;28;20543;-72
2023/06/05 04:48:28;;;;;;;23.63;14.60;;;17.30;99.90;;;;;;4970641;28;20487;-72
2023/06/05 04:50:55;;;;;;;35.17;16.23;;;17.70;99.90;;;;;;4970381;28;20542;-72
2023/06/05 04:53:22;;;;;;;15.37;14.27;;;17.90;99.10;;;;;;4970395;28;20463;-72
2023/06/05 04:55:49;;;;;;;15.73;14.63;;;18.10;98.60;;;;;;4970415;28;20463;-72
2023/06/05 04:58:16;;;;;;;15.53;14.30;;;18.20;98.30;;;;;;4970592;28;20610;-74
2023/06/05 05:00:44;;;;;;;17.13;15.50;;;18.30;98.30;;;;;;4970555;28;20538;-73
2023/06/05 05:03:13;;;;;;;16.20;14.73;;;18.50;98.00;;;;;;4970367;28;20483;-72
2023/06/05 05:05:40;;;;;;;16.07;14.97;;;18.90;96.90;;;;;;4970163;28;20546;-73
2023/06/05 05:08:06;;;;;;;16.97;15.30;;;19.10;96.40;;;;;;4970102;28;20663;-73
2023/06/05 05:10:33;;;;;;;15.53;14.23;;;19.30;95.90;;;;;;4970152;28;20455;-72
2023/06/05 05:13:01;;;;;;;31.10;17.30;;;19.40;96.00;;;;;;4970641;28;20455;-72
2023/06/05 05:15:28;;;;;;;17.90;16.30;;;19.40;95.60;;;;;;4970360;28;20957;-73
2023/06/05 05:17:55;;;;;;;18.03;16.63;;;19.70;95.40;;;;;;4970216;28;20483;-71
2023/06/05 05:20:24;;;;;;;16.47;14.83;;;20.00;94.70;;;;;;4970199;28;20456;-72
2023/06/05 05:22:50;;;;;;;18.30;15.50;;;20.40;94.40;;;;;;4970354;28;20463;-73
2023/06/05 05:25:17;;;;;;;16.73;15.63;;;20.90;92.70;;;;;;4970250;28;20455;-73
2023/06/05 05:27:44;;;;;;;16.17;14.57;;;21.40;91.60;;;;;;4970595;28;20473;-73
2023/06/05 05:30:11;;;;;;;15.60;14.37;;;21.70;90.10;;;;;;4969928;28;20459;-72
2023/06/05 05:32:38;;;;;;;16.70;15.30;;;22.00;90.00;;;;;;4969987;28;20459;-73
2023/06/05 05:35:06;;;;;;;17.70;16.30;;;22.40;86.10;;;;;;4969976;28;20452;-75
2023/06/05 05:37:35;;;;;;;16.77;15.37;;;22.40;84.30;;;;;;4969996;28;20467;-72
2023/06/05 05:40:03;;;;;;;18.83;17.43;;;22.60;82.90;;;;;;4969193;28;20491;-75
2023/06/05 05:42:30;;;;;;;19.23;17.93;;;22.90;80.80;;;;;;4975164;28;20451;-75
2023/06/05 05:44:56;;;;;;;19.30;18.00;;;23.40;77.90;;;;;;4972496;28;20462;-74
2023/06/05 05:47:23;;;;;;;19.83;18.27;;;23.60;78.10;;;;;;4973227;28;20456;-75
2023/06/05 05:49:49;;;;;;;18.57;17.33;;;23.80;76.20;;;;;;4973265;28;20968;-74
2023/06/05 05:52:20;;;;;;;19.47;18.07;;;23.90;76.20;;;;;;4990614;28;20896;-74
2023/06/05 05:54:48;;;;;;;17.47;16.37;;;24.00;75.10;;;;;;4992945;28;20502;-74
2023/06/05 05:57:14;;;;;;;18.43;17.33;;;24.20;74.20;;;;;;4992856;28;20454;-74
2023/06/05 05:59:44;;;;;;;18.90;16.90;;;24.30;72.60;;;;;;4992724;28;20496;-75
2023/06/05 06:02:11;;;;;;;15.70;14.53;;;24.20;70.90;;;;;;4992671;28;20451;-76
2023/06/05 06:04:39;;;;;;;17.03;15.83;;;24.30;69.70;;;;;;4992748;28;20459;-75
2023/06/05 06:07:06;;;;;;;17.50;16.00;;;23.80;69.40;;;;;;4991529;28;20457;-75
2023/06/05 06:09:33;;;;;;;16.20;15.17;;;23.30;69.20;;;;;;4992710;28;20443;-75
2023/06/05 06:12:05;;;;;;;15.40;14.50;;;23.40;69.40;;;;;;4992629;28;20454;-75
2023/06/05 06:14:32;;;;;;;15.17;14.33;;;23.00;70.40;;;;;;4992205;28;20965;-75
2023/06/05 06:16:58;;;;;;;15.53;14.83;;;23.10;70.80;;;;;;4992522;28;20822;-75
2023/06/05 06:19:27;;;;;;;15.20;14.40;;;23.10;71.50;;;;;;4992037;28;20491;-75
2023/06/05 06:21:54;;;;;;;14.90;14.10;;;23.80;70.20;;;;;;4992020;28;20550;-75
2023/06/05 06:24:22;;;;;;;15.73;14.70;;;24.40;68.30;;;;;;4992041;28;20513;-75
2023/06/05 06:26:49;;;;;;;14.77;14.07;;;24.70;66.70;;;;;;4991747;28;20462;-75
2023/06/05 06:29:19;;;;;;;14.90;13.70;;;24.70;65.00;;;;;;4992150;28;20458;-75
2023/06/05 06:31:46;;;;;;;14.60;13.90;;;24.80;66.10;;;;;;4992056;28;20513;-75
2023/06/05 06:34:13;;;;;;;15.40;14.57;;;25.40;64.10;;;;;;4991955;28;20866;-75
2023/06/05 06:36:40;;;;;;;16.50;15.50;;;25.90;62.80;;;;;;4991613;28;20473;-75
2023/06/05 06:39:07;;;;;;;14.90;14.20;;;26.40;61.40;;;;;;4991441;28;20666;-75
2023/06/05 06:41:34;;;;;;;15.53;14.73;;;26.70;59.20;;;;;;4991351;28;20569;-75
2023/06/05 06:44:01;;;;;;;14.80;14.00;;;26.40;59.60;;;;;;4991869;28;20490;-74
2023/06/05 06:46:31;;;;;;;15.50;14.80;;;26.10;59.70;;;;;;4991818;28;20453;-74
2023/06/05 06:48:57;;;;;;;15.30;14.57;;;26.50;59.60;;;;;;4991586;28;20454;-74
2023/06/05 06:51:24;;;;;;;14.43;13.63;;;26.50;59.30;;;;;;4991523;28;20455;-75
2023/06/05 06:53:51;;;;;;;15.57;14.90;;;27.00;58.80;;;;;;4990267;28;20459;-75
2023/06/05 06:56:18;;;;;;;15.50;14.47;;;27.40;57.90;;;;;;4991290;28;20955;-75
2023/06/05 06:58:46;;;;;;;14.70;14.10;;;27.90;55.50;;;;;;4991474;28;20497;-75
2023/06/05 07:01:14;;;;;;;14.80;14.00;;;27.50;55.50;;;;;;4991490;28;20485;-74
2023/06/05 07:03:42;;;;;;;15.20;14.60;;;26.90;55.20;;;;;;4991358;28;20517;-75
2023/06/05 07:06:11;;;;;;;15.27;14.40;;;27.00;56.20;;;;;;4991125;28;20928;-74
2023/06/05 07:08:38;;;;;;;14.80;14.20;;;27.70;55.30;;;;;;4990911;28;20565;-76
2023/06/05 07:11:04;;;;;;;16.00;15.10;;;28.50;53.40;;;;;;4990962;28;20459;-75
2023/06/05 07:13:31;;;;;;;16.10;15.20;;;28.30;52.70;;;;;;4991026;28;20501;-74
2023/06/05 07:15:58;;;;;;;15.17;14.47;;;28.80;53.20;;;;;;4991195;28;20446;-76
2023/06/05 07:18:24;;;;;;;14.50;13.90;;;29.00;52.20;;;;;;4990738;28;20475;-75
2023/06/05 07:20:52;;;;;;;15.33;14.63;;;29.10;52.00;;;;;;4990707;28;20454;-76
2023/06/05 07:23:19;;;;;;;15.67;14.87;;;29.40;51.30;;;;;;4990555;28;20466;-75
2023/06/05 07:25:46;;;;;;;16.13;15.20;;;29.90;50.40;;;;;;4990728;28;20462;-75
2023/06/05 07:28:13;;;;;;;15.60;14.90;;;30.10;50.40;;;;;;4990824;28;20501;-75
2023/06/05 07:30:42;;;;;;;16.60;15.60;;;29.70;50.60;;;;;;4990599;28;20582;-75
2023/06/05 07:33:10;;;;;;;14.90;14.30;;;29.50;51.20;;;;;;4979500;28;20470;-76
2023/06/05 07:35:37;;;;;;;17.20;16.10;;;29.50;51.40;;;;;;4970878;28;20514;-75
2023/06/05 07:38:05;;;;;;;18.10;17.20;;;29.90;51.80;;;;;;4970969;28;20866;-75
2023/06/05 07:40:32;;;;;;;16.60;15.70;;;30.30;51.70;;;;;;4970906;28;20523;-75
2023/06/05 07:42:59;;;;;;;15.87;15.10;;;31.20;51.00;;;;;;4971166;28;20452;-75
2023/06/05 07:45:25;;;;;;;15.97;15.17;;;31.50;49.40;;;;;;4970999;28;20542;-76
2023/06/05 07:47:52;;;;;;;15.40;14.80;;;31.50;49.00;;;;;;4970885;28;20451;-75
2023/06/05 07:50:19;;;;;;;17.00;16.20;;;31.00;49.70;;;;;;4970806;28;20455;-75
2023/06/05 07:52:45;;;;;;;16.20;15.40;;;31.10;49.10;;;;;;4971043;28;20886;-75
2023/06/05 07:55:13;;;;;;;17.00;16.00;;;31.40;48.70;;;;;;4971140;28;20820;-75
2023/06/05 07:57:40;;;;;;;17.23;16.50;;;31.30;50.00;;;;;;4970708;28;20496;-75
2023/06/05 08:00:10;;;;;;;17.00;16.23;;;31.20;49.40;;;;;;4970686;28;21064;-76
2023/06/05 08:02:38;;;;;;;17.20;16.40;;;31.80;48.40;;;;;;4970665;28;20511;-75
2023/06/05 08:05:06;;;;;;;17.17;16.37;;;32.20;47.60;;;;;;4970291;28;20483;-75
2023/06/05 08:07:32;;;;;;;15.77;14.87;;;32.30;47.80;;;;;;4970461;28;20471;-75
2023/06/05 08:09:59;;;;;;;18.10;16.80;;;33.00;47.20;;;;;;4970759;28;20452;-76
2023/06/05 08:12:27;;;;;;;17.37;16.40;;;32.60;47.50;;;;;;4970617;28;20443;-73
2023/06/05 08:14:54;;;;;;;18.23;17.10;;;32.60;47.70;;;;;;4970326;28;20452;-73
2023/06/05 08:17:21;;;;;;;17.03;16.17;;;32.60;47.90;;;;;;4970308;28;20960;-72
2023/06/05 08:19:48;;;;;;;16.57;15.70;;;32.00;48.80;;;;;;4970267;28;20495;-74
2023/06/05 08:22:14;;;;;;;16.77;15.97;;;32.00;49.10;;;;;;4970575;28;20451;-73
2023/06/05 08:24:41;;;;;;;17.10;16.30;;;31.40;50.70;;;;;;4971081;28;20451;-72
2023/06/05 08:27:08;;;;;;;18.00;17.10;;;31.60;50.40;;;;;;4970601;28;20466;-74
2023/06/05 08:29:36;;;;;;;17.17;16.33;;;31.50;50.40;;;;;;4970833;28;20483;-73
2023/06/05 08:32:04;;;;;;;17.77;16.93;;;31.20;51.40;;;;;;4970339;28;20487;-73
2023/06/05 08:34:31;;;;;;;17.67;16.67;;;30.90;52.50;;;;;;4968618;28;20543;-73
2023/06/05 08:36:58;;;;;;;17.53;16.80;;;31.60;52.30;;;;;;4970522;28;20469;-73
2023/06/05 08:39:29;;;;;;;16.00;15.40;;;31.40;52.20;;;;;;4970084;28;20523;-74
2023/06/05 08:42:00;;;;;;;16.67;15.73;;;31.00;50.70;;;;;;4970143;28;20492;-74
2023/06/05 08:44:27;;;;;;;18.03;17.23;;;30.40;53.10;;;;;;4970278;28;20812;-74
2023/06/05 08:47:00;;;;;;;16.70;15.80;;;30.50;52.40;;;;;;4970235;28;20467;-74
2023/06/05 08:49:29;;;;;;;17.27;16.47;;;30.90;52.70;;;;;;4970457;28;20559;-74
2023/06/05 08:52:02;;;;;;;17.93;17.03;;;31.70;51.60;;;;;;4970095;28;20459;-74
2023/06/05 08:54:30;;;;;;;17.20;16.40;;;32.20;50.60;;;;;;4970585;28;20831;-74
2023/06/05 08:56:57;;;;;;;18.47;17.67;;;32.50;50.70;;;;;;4979443;28;20443;-74
2023/06/05 08:59:24;;;;;;;17.70;17.00;;;32.30;50.70;;;;;;4979848;28;20487;-74
2023/06/05 09:01:51;;;;;;;17.50;16.50;;;32.30;51.50;;;;;;4952182;28;20460;-74
2023/06/05 09:04:20;;;;;;;17.23;16.33;;;32.40;50.90;;;;;;4969952;28;20455;-74
2023/06/05 09:06:47;;;;;;;17.83;17.03;;;31.80;51.90;;;;;;4970149;28;20965;-74
2023/06/05 09:09:15;;;;;;;17.80;16.80;;;31.60;51.60;;;;;;4970194;28;20575;-74
2023/06/05 09:11:42;;;;;;;17.10;16.33;;;31.30;52.50;;;;;;4969948;28;20463;-74
2023/06/05 09:14:08;;;;;;;18.60;17.70;;;32.20;52.40;;;;;;4969867;28;20825;-74
2023/06/05 09:16:37;;;;;;;17.97;17.17;;;32.40;50.80;;;;;;4970407;28;20455;-75
2023/06/05 09:19:04;;;;;;;17.90;16.80;;;31.80;51.40;;;;;;4973320;28;20495;-74
2023/06/05 09:21:32;;;;;;;18.03;17.30;;;32.40;50.60;;;;;;4973635;28;20455;-75
2023/06/05 09:24:21;;;;;;;18.17;17.27;;;33.10;49.60;;;;;;4973795;28;20458;-74
2023/06/05 09:26:50;;;;;;;17.03;16.33;;;33.40;48.90;;;;;;4967559;28;20456;-74
2023/06/05 09:29:21;;;;;;;17.90;17.10;;;33.20;48.50;;;;;;4973704;28;20444;-74
2023/06/05 09:31:48;;;;;;;17.43;16.67;;;32.80;48.60;;;;;;4973443;28;20451;-74
2023/06/05 09:34:22;;;;;;;17.90;17.00;;;32.80;49.10;;;;;;4973963;28;20451;-73
2023/06/05 09:36:50;;;;;;;18.87;17.77;;;33.60;48.20;;;;;;4973192;28;20792;-74
2023/06/05 09:39:18;;;;;;;18.27;17.17;;;33.00;48.50;;;;;;4973236;28;20491;-74
2023/06/05 09:41:45;;;;;;;17.30;16.40;;;32.80;48.90;;;;;;4973357;28;20484;-73
2023/06/05 09:44:12;;;;;;;17.47;16.67;;;32.70;49.70;;;;;;4973638;28;20452;-73
2023/06/05 09:46:54;;;;;;;17.50;16.80;;;32.60;49.50;;;;;;4973261;28;20456;-74
2023/06/05 09:49:22;;;;;;;18.47;17.47;;;33.60;48.60;;;;;;4973146;28;20443;-74
2023/06/05 09:51:50;;;;;;;17.73;16.93;;;34.30;47.70;;;;;;4973061;28;20957;-74
2023/06/05 09:54:17;;;;;;;18.77;17.67;;;34.00;47.60;;;;;;4973126;28;20791;-74
2023/06/05 09:56:51;;;;;;;17.00;16.20;;;34.70;46.60;;;;;;4973405;28;20462;-75
2023/06/05 09:59:22;;;;;;;18.60;17.70;;;33.90;47.50;;;;;;4972824;28;20898;-74
2023/06/05 10:01:51;;;;;;;18.43;17.60;;;32.40;48.30;;;;;;4973000;28;20531;-74
2023/06/05 10:04:21;;;;;;;19.00;18.10;;;30.80;51.00;;;;;;4972947;28;20542;-73
2023/06/05 10:06:49;;;;;;;18.00;17.20;;;30.80;52.00;;;;;;4972883;28;20456;-74
2023/06/05 10:09:16;;;;;;;17.93;17.13;;;30.50;51.50;;;;;;4973076;28;20452;-76
2023/06/05 10:11:44;;;;;;;17.87;17.07;;;30.00;53.00;;;;;;4973042;28;20470;-74
2023/06/05 10:14:11;;;;;;;17.67;16.63;;;31.00;51.20;;;;;;4972785;28;20521;-74
2023/06/05 10:16:39;;;;;;;17.80;17.00;;;32.20;49.20;;;;;;4972622;28;21244;-74
2023/06/05 10:19:07;;;;;;;18.33;17.53;;;32.50;48.20;;;;;;4972463;28;20487;-75
2023/06/05 10:21:34;;;;;;;18.23;17.43;;;33.40;47.60;;;;;;4972484;28;20465;-75
2023/06/05 10:24:04;;;;;;;17.73;16.60;;;33.80;45.60;;;;;;4973063;28;20542;-75
2023/06/05 10:27:03;;;;;;;18.70;17.60;;;34.20;44.10;;;;;;4972990;28;20459;-74
2023/06/05 10:29:52;;;;;;;18.13;17.23;;;34.00;44.10;;;;;;4972550;28;20996;-74
2023/06/05 10:32:34;;;;;;;17.10;16.40;;;32.60;44.10;;;;;;4972508;28;20467;-75
2023/06/05 10:35:12;;;;;;;17.77;16.77;;;32.40;45.50;;;;;;4972964;28;20464;-74
2023/06/05 10:37:47;;;;;;;17.90;17.00;;;32.80;43.90;;;;;;4972424;28;20459;-74
2023/06/05 10:40:17;;;;;;;16.30;15.70;;;33.70;42.90;;;;;;4972494;28;20491;-73
2023/06/05 10:42:44;;;;;;;18.33;17.50;;;33.80;40.90;;;;;;4971239;28;20455;-73
2023/06/05 10:45:11;;;;;;;17.67;16.90;;;33.20;41.90;;;;;;4972612;28;20455;-73
2023/06/05 10:47:52;;;;;;;17.77;16.90;;;32.70;43.00;;;;;;4972403;28;20487;-74
2023/06/05 10:50:21;;;;;;;17.60;16.80;;;33.50;42.80;;;;;;4972256;28;20448;-73
2023/06/05 10:52:49;;;;;;;17.97;17.17;;;34.00;41.40;;;;;;4972531;28;20462;-73
2023/06/05 10:55:18;;;;;;;18.17;17.13;;;33.80;40.90;;;;;;4972349;28;20487;-74
2023/06/05 10:58:06;;;;;;;17.60;16.90;;;34.70;40.90;;;;;;4972379;28;20448;-73
2023/06/05 11:00:34;;;;;;;17.23;16.53;;;35.70;40.80;;;;;;4971855;28;20602;-74
2023/06/05 11:03:01;;;;;;;18.30;17.40;;;34.40;42.30;;;;;;4972317;28;20814;-74
2023/06/05 11:05:28;;;;;;;17.60;16.80;;;33.70;43.60;;;;;;4972295;28;20552;-74
2023/06/05 11:08:13;;;;;;;18.30;17.40;;;34.80;43.10;;;;;;4972124;28;20451;-74
2023/06/05 11:11:05;;;;;;;17.17;16.37;;;34.40;41.70;;;;;;4971982;28;20487;-75
2023/06/05 11:13:54;;;;;;;16.00;15.37;;;33.50;42.30;;;;;;4971994;28;21029;-73
2023/06/05 11:16:28;;;;;;;16.07;15.47;;;33.20;42.10;;;;;;4971655;28;20459;-74
2023/06/05 11:18:55;;;;;;;18.13;17.23;;;33.00;41.70;;;;;;4971728;28;20548;-73
2023/06/05 11:21:23;;;;;;;16.20;15.60;;;32.60;41.80;;;;;;4971708;28;21099;-73
2023/06/05 11:24:16;;;;;;;16.57;15.67;;;31.80;42.60;;;;;;4971648;28;20985;-74
2023/06/05 11:26:44;;;;;;;16.73;16.03;;;31.50;43.20;;;;;;4972369;28;20480;-74
2023/06/05 11:29:16;;;;;;;18.73;17.93;;;32.30;42.80;;;;;;4971657;28;20444;-74
2023/06/05 11:31:47;;;;;;;18.03;17.07;;;34.20;41.10;;;;;;4971903;28;20443;-75
2023/06/05 11:34:14;;;;;;;18.37;17.47;;;35.40;39.00;;;;;;4971770;28;20452;-74
2023/06/05 11:36:41;;;;;;;16.67;16.07;;;36.90;38.10;;;;;;4971574;28;20455;-75
2023/06/05 11:39:10;;;;;;;17.77;16.97;;;36.80;39.20;;;;;;4971201;28;20467;-73
2023/06/05 11:41:46;;;;;;;17.00;16.30;;;35.40;38.70;;;;;;4971344;28;20570;-74
2023/06/05 11:44:13;;;;;;;18.47;17.67;;;34.20;39.50;;;;;;4971580;28;20502;-73
2023/06/05 11:46:40;;;;;;;19.40;18.40;;;34.90;39.80;;;;;;4971184;28;20463;-73
2023/06/05 11:49:07;;;;;;;17.10;16.20;;;35.10;38.70;;;;;;4971024;28;20808;-73
2023/06/05 11:51:35;;;;;;;17.63;16.73;;;34.10;39.00;;;;;;4971241;28;20483;-73
2023/06/05 11:54:02;;;;;;;17.27;16.47;;;32.60;40.00;;;;;;4971451;28;20443;-73
2023/06/05 11:56:29;;;;;;;18.40;17.60;;;32.80;40.80;;;;;;4971423;28;20544;-72
2023/06/05 11:58:57;;;;;;;16.93;15.97;;;32.50;40.20;;;;;;4971205;28;20451;-73
2023/06/05 12:01:25;;;;;;;17.73;16.93;;;32.90;40.30;;;;;;4970938;28;20487;-73
2023/06/05 12:04:03;;;;;;;18.20;17.30;;;32.70;40.70;;;;;;4970857;28;20594;-74
2023/06/05 12:06:30;;;;;;;17.80;16.90;;;33.70;40.00;;;;;;4971232;28;20460;-74
2023/06/05 12:09:09;;;;;;;17.83;16.93;;;32.60;39.70;;;;;;4971033;28;20451;-74
2023/06/05 12:11:35;;;;;;;17.73;16.93;;;32.40;40.80;;;;;;4970849;28;20785;-73
2023/06/05 12:14:03;;;;;;;17.40;16.70;;;32.20;41.30;;;;;;4970996;28;20447;-72
2023/06/05 12:16:32;;;;;;;17.87;17.07;;;31.90;40.70;;;;;;4971280;28;20452;-73
2023/06/05 12:18:59;;;;;;;16.40;15.60;;;31.60;40.40;;;;;;4971086;28;20554;-73
2023/06/05 12:21:27;;;;;;;17.80;16.90;;;32.00;40.50;;;;;;4970627;28;20487;-73
2023/06/05 12:24:02;;;;;;;18.23;17.23;;;33.70;40.10;;;;;;4970821;28;20506;-73
2023/06/05 12:26:30;;;;;;;18.63;17.73;;;34.10;38.80;;;;;;4970866;28;20455;-74
2023/06/05 12:29:07;;;;;;;17.10;16.27;;;34.00;39.70;;;;;;4970955;28;20466;-73
2023/06/05 12:31:39;;;;;;;18.40;17.43;;;32.60;39.70;;;;;;4970780;28;20459;-73
2023/06/05 12:34:06;;;;;;;19.03;18.23;;;31.70;40.00;;;;;;4970534;28;20586;-74
2023/06/05 12:36:39;;;;;;;17.00;16.30;;;30.70;40.30;;;;;;4970781;28;20459;-73